sensor_id;sensor_type;location;lat;lon;timestamp;temperature;humidity
10316;DHT22;5203;48.976;8.306;2024-02-26T00:02:18;8.20;58.80
10316;DHT22;5203;48.976;8.306;2024-02-26T00:04:43;8.30;59.20
10316;DHT22;5203;48.976;8.306;2024-02-26T00:07:09;8.30;63.50
10316;DHT22;5203;48.976;8.306;2024-02-26T00:09:35;8.30;63.50
10316;DHT22;5203;48.976;8.306;2024-02-26T00:12:03;8.30;62.50
10316;DHT22;5203;48.976;8.306;2024-02-26T00:14:32;8.20;63.10
10316;DHT22;5203;48.976;8.306;2024-02-26T00:16:57;8.20;67.00
10316;DHT22;5203;48.976;8.306;2024-02-26T00:19:23;8.10;62.00
10316;DHT22;5203;48.976;8.306;2024-02-26T00:21:49;8.10;64.00
10316;DHT22;5203;48.976;8.306;2024-02-26T00:24:15;8.10;62.20
10316;DHT22;5203;48.976;8.306;2024-02-26T00:26:40;8.20;62.90
10316;DHT22;5203;48.976;8.306;2024-02-26T00:29:06;8.30;60.10
10316;DHT22;5203;48.976;8.306;2024-02-26T00:31:31;8.40;58.00
10316;DHT22;5203;48.976;8.306;2024-02-26T00:33:57;8.50;56.50
10316;DHT22;5203;48.976;8.306;2024-02-26T00:36:23;8.60;56.60
10316;DHT22;5203;48.976;8.306;2024-02-26T00:38:49;8.70;54.40
10316;DHT22;5203;48.976;8.306;2024-02-26T00:41:20;8.70;55.40
10316;DHT22;5203;48.976;8.306;2024-02-26T00:43:46;8.80;56.50
10316;DHT22;5203;48.976;8.306;2024-02-26T00:46:12;8.80;55.60
10316;DHT22;5203;48.976;8.306;2024-02-26T00:48:37;8.80;56.20
10316;DHT22;5203;48.976;8.306;2024-02-26T00:51:04;8.80;63.40
10316;DHT22;5203;48.976;8.306;2024-02-26T00:53:33;8.80;63.90
10316;DHT22;5203;48.976;8.306;2024-02-26T00:55:59;8.70;65.00
10316;DHT22;5203;48.976;8.306;2024-02-26T00:58:25;8.70;70.70
10316;DHT22;5203;48.976;8.306;2024-02-26T01:00:51;8.60;71.80
10316;DHT22;5203;48.976;8.306;2024-02-26T01:03:17;8.50;74.40
10316;DHT22;5203;48.976;8.306;2024-02-26T01:05:43;8.50;73.00
10316;DHT22;5203;48.976;8.306;2024-02-26T01:08:08;8.50;73.00
10316;DHT22;5203;48.976;8.306;2024-02-26T01:10:34;8.50;67.80
10316;DHT22;5203;48.976;8.306;2024-02-26T01:13:00;8.60;69.40
10316;DHT22;5203;48.976;8.306;2024-02-26T01:15:26;8.90;67.60
10316;DHT22;5203;48.976;8.306;2024-02-26T01:17:52;9.20;68.50
10316;DHT22;5203;48.976;8.306;2024-02-26T01:20:18;9.30;70.50
10316;DHT22;5203;48.976;8.306;2024-02-26T01:22:44;9.30;71.80
10316;DHT22;5203;48.976;8.306;2024-02-26T01:25:10;9.20;74.60
10316;DHT22;5203;48.976;8.306;2024-02-26T01:27:36;9.10;77.00
10316;DHT22;5203;48.976;8.306;2024-02-26T01:30:03;8.90;76.70
10316;DHT22;5203;48.976;8.306;2024-02-26T01:32:29;8.90;79.50
10316;DHT22;5203;48.976;8.306;2024-02-26T01:34:55;8.80;80.50
10316;DHT22;5203;48.976;8.306;2024-02-26T01:37:21;8.70;83.60
10316;DHT22;5203;48.976;8.306;2024-02-26T01:39:46;8.60;82.70
10316;DHT22;5203;48.976;8.306;2024-02-26T01:42:12;8.60;82.90
10316;DHT22;5203;48.976;8.306;2024-02-26T01:44:38;8.60;84.60
10316;DHT22;5203;48.976;8.306;2024-02-26T01:47:05;8.60;84.20
10316;DHT22;5203;48.976;8.306;2024-02-26T01:49:34;8.50;85.80
10316;DHT22;5203;48.976;8.306;2024-02-26T01:52:01;8.50;87.90
10316;DHT22;5203;48.976;8.306;2024-02-26T01:54:27;8.40;86.60
10316;DHT22;5203;48.976;8.306;2024-02-26T01:56:53;8.40;83.50
10316;DHT22;5203;48.976;8.306;2024-02-26T01:59:20;8.50;84.10
10316;DHT22;5203;48.976;8.306;2024-02-26T02:01:48;8.60;81.90
10316;DHT22;5203;48.976;8.306;2024-02-26T02:04:16;8.60;84.50
10316;DHT22;5203;48.976;8.306;2024-02-26T02:06:42;8.50;85.90
10316;DHT22;5203;48.976;8.306;2024-02-26T02:09:09;8.40;87.60
10316;DHT22;5203;48.976;8.306;2024-02-26T02:11:35;8.40;88.70
10316;DHT22;5203;48.976;8.306;2024-02-26T02:14:01;8.30;90.00
10316;DHT22;5203;48.976;8.306;2024-02-26T02:16:27;8.20;92.20
10316;DHT22;5203;48.976;8.306;2024-02-26T02:18:52;8.20;94.30
10316;DHT22;5203;48.976;8.306;2024-02-26T02:21:18;8.10;95.40
10316;DHT22;5203;48.976;8.306;2024-02-26T02:23:43;8.10;95.90
10316;DHT22;5203;48.976;8.306;2024-02-26T02:26:12;8.10;97.70
10316;DHT22;5203;48.976;8.306;2024-02-26T02:28:39;8.00;98.50
10316;DHT22;5203;48.976;8.306;2024-02-26T02:31:05;8.00;99.60
10316;DHT22;5203;48.976;8.306;2024-02-26T02:33:32;8.00;99.90
10316;DHT22;5203;48.976;8.306;2024-02-26T02:35:58;8.00;99.90
10316;DHT22;5203;48.976;8.306;2024-02-26T02:38:24;7.80;99.90
10316;DHT22;5203;48.976;8.306;2024-02-26T02:40:52;7.80;99.90
10316;DHT22;5203;48.976;8.306;2024-02-26T02:43:18;7.80;99.90
10316;DHT22;5203;48.976;8.306;2024-02-26T02:45:43;7.80;99.90
10316;DHT22;5203;48.976;8.306;2024-02-26T02:48:10;7.80;99.90
10316;DHT22;5203;48.976;8.306;2024-02-26T02:50:36;7.70;99.90
10316;DHT22;5203;48.976;8.306;2024-02-26T02:53:01;7.60;99.90
10316;DHT22;5203;48.976;8.306;2024-02-26T02:55:27;7.60;99.90
10316;DHT22;5203;48.976;8.306;2024-02-26T02:57:53;7.50;99.90
10316;DHT22;5203;48.976;8.306;2024-02-26T03:00:19;7.50;99.90
10316;DHT22;5203;48.976;8.306;2024-02-26T03:02:45;7.50;99.90
10316;DHT22;5203;48.976;8.306;2024-02-26T03:05:11;7.40;99.90
10316;DHT22;5203;48.976;8.306;2024-02-26T03:07:37;7.40;99.90
10316;DHT22;5203;48.976;8.306;2024-02-26T03:10:03;7.30;99.90
10316;DHT22;5203;48.976;8.306;2024-02-26T03:12:30;7.40;99.90
10316;DHT22;5203;48.976;8.306;2024-02-26T03:14:55;7.40;99.90
10316;DHT22;5203;48.976;8.306;2024-02-26T03:17:21;7.40;99.90
10316;DHT22;5203;48.976;8.306;2024-02-26T03:19:47;7.40;99.90
10316;DHT22;5203;48.976;8.306;2024-02-26T03:22:13;7.30;99.90
10316;DHT22;5203;48.976;8.306;2024-02-26T03:24:38;7.30;99.90
10316;DHT22;5203;48.976;8.306;2024-02-26T03:27:04;7.20;99.90
10316;DHT22;5203;48.976;8.306;2024-02-26T03:29:35;7.20;99.90
10316;DHT22;5203;48.976;8.306;2024-02-26T03:32:01;7.20;99.90
10316;DHT22;5203;48.976;8.306;2024-02-26T03:34:27;7.10;99.90
10316;DHT22;5203;48.976;8.306;2024-02-26T03:36:53;7.10;99.90
10316;DHT22;5203;48.976;8.306;2024-02-26T03:39:18;7.10;99.90
10316;DHT22;5203;48.976;8.306;2024-02-26T03:41:44;7.20;99.90
10316;DHT22;5203;48.976;8.306;2024-02-26T03:44:11;7.10;99.90
10316;DHT22;5203;48.976;8.306;2024-02-26T03:46:37;7.10;99.90
10316;DHT22;5203;48.976;8.306;2024-02-26T03:49:03;7.20;99.90
10316;DHT22;5203;48.976;8.306;2024-02-26T03:51:29;7.20;99.90
10316;DHT22;5203;48.976;8.306;2024-02-26T03:53:57;7.10;99.90
10316;DHT22;5203;48.976;8.306;2024-02-26T03:56:23;7.10;99.90
10316;DHT22;5203;48.976;8.306;2024-02-26T03:58:49;7.10;99.90
10316;DHT22;5203;48.976;8.306;2024-02-26T04:01:15;7.20;99.90
10316;DHT22;5203;48.976;8.306;2024-02-26T04:03:41;7.10;99.90
10316;DHT22;5203;48.976;8.306;2024-02-26T04:06:10;7.10;99.90
10316;DHT22;5203;48.976;8.306;2024-02-26T04:08:37;7.10;99.90
10316;DHT22;5203;48.976;8.306;2024-02-26T04:11:03;7.10;99.90
10316;DHT22;5203;48.976;8.306;2024-02-26T04:13:36;7.10;99.90
10316;DHT22;5203;48.976;8.306;2024-02-26T04:16:06;7.10;99.90
10316;DHT22;5203;48.976;8.306;2024-02-26T04:18:33;7.10;99.90
10316;DHT22;5203;48.976;8.306;2024-02-26T04:20:59;7.10;99.90
10316;DHT22;5203;48.976;8.306;2024-02-26T04:23:24;7.20;99.90
10316;DHT22;5203;48.976;8.306;2024-02-26T04:25:50;7.10;99.90
10316;DHT22;5203;48.976;8.306;2024-02-26T04:28:16;7.10;99.90
10316;DHT22;5203;48.976;8.306;2024-02-26T04:30:41;7.10;99.90
10316;DHT22;5203;48.976;8.306;2024-02-26T04:33:07;7.20;99.90
10316;DHT22;5203;48.976;8.306;2024-02-26T04:35:33;7.20;99.90
10316;DHT22;5203;48.976;8.306;2024-02-26T04:38:00;7.20;99.90
10316;DHT22;5203;48.976;8.306;2024-02-26T04:40:26;7.20;99.90
10316;DHT22;5203;48.976;8.306;2024-02-26T04:42:51;7.20;99.90
10316;DHT22;5203;48.976;8.306;2024-02-26T04:45:17;7.20;99.90
10316;DHT22;5203;48.976;8.306;2024-02-26T04:47:43;7.20;99.90
10316;DHT22;5203;48.976;8.306;2024-02-26T04:50:08;7.20;99.90
10316;DHT22;5203;48.976;8.306;2024-02-26T04:52:34;7.20;99.90
10316;DHT22;5203;48.976;8.306;2024-02-26T04:55:00;7.20;99.90
10316;DHT22;5203;48.976;8.306;2024-02-26T04:57:26;7.20;99.90
10316;DHT22;5203;48.976;8.306;2024-02-26T04:59:52;7.20;99.90
10316;DHT22;5203;48.976;8.306;2024-02-26T05:02:17;7.10;99.90
10316;DHT22;5203;48.976;8.306;2024-02-26T05:04:43;7.10;99.90
10316;DHT22;5203;48.976;8.306;2024-02-26T05:07:09;7.10;99.90
10316;DHT22;5203;48.976;8.306;2024-02-26T05:09:35;7.10;99.90
10316;DHT22;5203;48.976;8.306;2024-02-26T05:12:01;7.00;99.90
10316;DHT22;5203;48.976;8.306;2024-02-26T05:14:27;7.00;99.90
10316;DHT22;5203;48.976;8.306;2024-02-26T05:16:52;7.00;99.90
10316;DHT22;5203;48.976;8.306;2024-02-26T05:19:18;7.00;99.90
10316;DHT22;5203;48.976;8.306;2024-02-26T05:21:43;7.00;99.90
10316;DHT22;5203;48.976;8.306;2024-02-26T05:24:09;7.00;99.90
10316;DHT22;5203;48.976;8.306;2024-02-26T05:26:35;7.00;99.90
10316;DHT22;5203;48.976;8.306;2024-02-26T05:29:01;7.00;99.90
10316;DHT22;5203;48.976;8.306;2024-02-26T05:31:27;7.00;99.90
10316;DHT22;5203;48.976;8.306;2024-02-26T05:33:54;7.00;99.90
10316;DHT22;5203;48.976;8.306;2024-02-26T05:36:20;7.00;99.90
10316;DHT22;5203;48.976;8.306;2024-02-26T05:38:48;7.10;99.90
10316;DHT22;5203;48.976;8.306;2024-02-26T05:41:17;7.10;99.90
10316;DHT22;5203;48.976;8.306;2024-02-26T05:43:51;7.10;99.90
10316;DHT22;5203;48.976;8.306;2024-02-26T05:46:20;7.20;99.90
10316;DHT22;5203;48.976;8.306;2024-02-26T05:48:47;7.20;99.90
10316;DHT22;5203;48.976;8.306;2024-02-26T05:51:13;7.10;99.90
10316;DHT22;5203;48.976;8.306;2024-02-26T05:53:40;7.20;99.90
10316;DHT22;5203;48.976;8.306;2024-02-26T05:56:06;7.20;99.90
10316;DHT22;5203;48.976;8.306;2024-02-26T05:58:31;7.20;99.90
10316;DHT22;5203;48.976;8.306;2024-02-26T06:00:57;7.10;99.90
10316;DHT22;5203;48.976;8.306;2024-02-26T06:03:22;7.10;99.90
10316;DHT22;5203;48.976;8.306;2024-02-26T06:05:48;7.10;99.90
10316;DHT22;5203;48.976;8.306;2024-02-26T06:08:14;7.00;99.90
10316;DHT22;5203;48.976;8.306;2024-02-26T06:10:39;7.00;99.90
10316;DHT22;5203;48.976;8.306;2024-02-26T06:13:05;7.00;99.90
10316;DHT22;5203;48.976;8.306;2024-02-26T06:15:31;7.00;99.90
10316;DHT22;5203;48.976;8.306;2024-02-26T06:17:56;7.00;99.90
10316;DHT22;5203;48.976;8.306;2024-02-26T06:20:22;7.00;99.90
10316;DHT22;5203;48.976;8.306;2024-02-26T06:22:47;6.90;99.90
10316;DHT22;5203;48.976;8.306;2024-02-26T06:25:13;6.90;99.90
10316;DHT22;5203;48.976;8.306;2024-02-26T06:27:39;6.90;99.90
10316;DHT22;5203;48.976;8.306;2024-02-26T06:30:05;6.90;99.90
10316;DHT22;5203;48.976;8.306;2024-02-26T06:32:30;6.90;99.90
10316;DHT22;5203;48.976;8.306;2024-02-26T06:34:56;7.00;99.90
10316;DHT22;5203;48.976;8.306;2024-02-26T06:37:22;7.00;99.90
10316;DHT22;5203;48.976;8.306;2024-02-26T06:39:47;7.00;99.90
10316;DHT22;5203;48.976;8.306;2024-02-26T06:42:13;7.00;99.90
10316;DHT22;5203;48.976;8.306;2024-02-26T06:44:39;7.00;99.90
10316;DHT22;5203;48.976;8.306;2024-02-26T06:47:05;7.00;99.90
10316;DHT22;5203;48.976;8.306;2024-02-26T06:49:31;7.00;99.90
10316;DHT22;5203;48.976;8.306;2024-02-26T06:51:57;6.90;99.90
10316;DHT22;5203;48.976;8.306;2024-02-26T06:54:22;6.90;99.90
10316;DHT22;5203;48.976;8.306;2024-02-26T06:56:48;7.00;99.90
10316;DHT22;5203;48.976;8.306;2024-02-26T06:59:14;7.00;99.90
10316;DHT22;5203;48.976;8.306;2024-02-26T07:01:41;7.00;99.90
10316;DHT22;5203;48.976;8.306;2024-02-26T07:04:07;7.10;99.90
10316;DHT22;5203;48.976;8.306;2024-02-26T07:06:32;7.10;99.90
10316;DHT22;5203;48.976;8.306;2024-02-26T07:08:58;7.10;99.90
10316;DHT22;5203;48.976;8.306;2024-02-26T07:11:24;7.10;99.90
10316;DHT22;5203;48.976;8.306;2024-02-26T07:13:52;7.10;99.90
10316;DHT22;5203;48.976;8.306;2024-02-26T07:16:18;7.00;99.90
10316;DHT22;5203;48.976;8.306;2024-02-26T07:18:43;7.00;99.90
10316;DHT22;5203;48.976;8.306;2024-02-26T07:21:09;6.90;99.90
10316;DHT22;5203;48.976;8.306;2024-02-26T07:23:36;7.00;99.90
10316;DHT22;5203;48.976;8.306;2024-02-26T07:26:02;7.00;99.90
10316;DHT22;5203;48.976;8.306;2024-02-26T07:28:28;7.10;99.90
10316;DHT22;5203;48.976;8.306;2024-02-26T07:30:53;7.20;99.90
10316;DHT22;5203;48.976;8.306;2024-02-26T07:33:19;7.30;99.90
10316;DHT22;5203;48.976;8.306;2024-02-26T07:35:45;7.20;99.90
10316;DHT22;5203;48.976;8.306;2024-02-26T07:38:10;7.20;99.90
10316;DHT22;5203;48.976;8.306;2024-02-26T07:40:38;7.20;99.90
10316;DHT22;5203;48.976;8.306;2024-02-26T07:43:04;7.20;99.90
10316;DHT22;5203;48.976;8.306;2024-02-26T07:45:29;7.20;99.90
10316;DHT22;5203;48.976;8.306;2024-02-26T07:47:55;7.20;99.90
10316;DHT22;5203;48.976;8.306;2024-02-26T07:50:20;7.20;99.90
10316;DHT22;5203;48.976;8.306;2024-02-26T07:52:46;7.30;99.90
10316;DHT22;5203;48.976;8.306;2024-02-26T07:55:12;7.40;99.90
10316;DHT22;5203;48.976;8.306;2024-02-26T07:57:37;7.40;99.90
10316;DHT22;5203;48.976;8.306;2024-02-26T08:00:07;7.40;99.90
10316;DHT22;5203;48.976;8.306;2024-02-26T08:02:34;7.40;99.90
10316;DHT22;5203;48.976;8.306;2024-02-26T08:05:00;7.40;99.90
10316;DHT22;5203;48.976;8.306;2024-02-26T08:07:26;7.50;99.90
10316;DHT22;5203;48.976;8.306;2024-02-26T08:09:51;7.50;99.90
10316;DHT22;5203;48.976;8.306;2024-02-26T08:12:17;7.60;99.90
10316;DHT22;5203;48.976;8.306;2024-02-26T08:14:43;7.60;99.90
10316;DHT22;5203;48.976;8.306;2024-02-26T08:17:09;7.60;99.90
10316;DHT22;5203;48.976;8.306;2024-02-26T08:19:35;7.70;99.90
10316;DHT22;5203;48.976;8.306;2024-02-26T08:22:01;7.70;99.90
10316;DHT22;5203;48.976;8.306;2024-02-26T08:24:27;7.80;99.90
10316;DHT22;5203;48.976;8.306;2024-02-26T08:26:53;7.90;99.90
10316;DHT22;5203;48.976;8.306;2024-02-26T08:29:19;8.00;99.90
10316;DHT22;5203;48.976;8.306;2024-02-26T08:31:45;8.20;99.90
10316;DHT22;5203;48.976;8.306;2024-02-26T08:34:10;8.30;99.90
10316;DHT22;5203;48.976;8.306;2024-02-26T08:36:36;8.40;99.90
10316;DHT22;5203;48.976;8.306;2024-02-26T08:39:02;8.50;99.90
10316;DHT22;5203;48.976;8.306;2024-02-26T08:41:28;8.50;99.90
10316;DHT22;5203;48.976;8.306;2024-02-26T08:43:54;8.60;99.90
10316;DHT22;5203;48.976;8.306;2024-02-26T08:46:20;8.60;99.90
10316;DHT22;5203;48.976;8.306;2024-02-26T08:48:46;8.60;99.90
10316;DHT22;5203;48.976;8.306;2024-02-26T08:51:11;8.70;99.90
10316;DHT22;5203;48.976;8.306;2024-02-26T08:53:38;8.70;99.90
10316;DHT22;5203;48.976;8.306;2024-02-26T08:56:04;8.70;99.90
10316;DHT22;5203;48.976;8.306;2024-02-26T08:58:30;8.80;99.90
10316;DHT22;5203;48.976;8.306;2024-02-26T09:00:56;8.90;99.90
10316;DHT22;5203;48.976;8.306;2024-02-26T09:03:22;9.00;99.90
10316;DHT22;5203;48.976;8.306;2024-02-26T09:05:48;9.00;99.90
10316;DHT22;5203;48.976;8.306;2024-02-26T09:08:14;9.10;99.90
10316;DHT22;5203;48.976;8.306;2024-02-26T09:10:40;9.20;99.90
10316;DHT22;5203;48.976;8.306;2024-02-26T09:13:06;9.30;99.90
10316;DHT22;5203;48.976;8.306;2024-02-26T09:15:32;9.30;99.90
10316;DHT22;5203;48.976;8.306;2024-02-26T09:17:58;9.30;99.90
10316;DHT22;5203;48.976;8.306;2024-02-26T09:20:24;9.30;99.90
10316;DHT22;5203;48.976;8.306;2024-02-26T09:22:50;9.40;99.90
10316;DHT22;5203;48.976;8.306;2024-02-26T09:25:19;9.40;99.90
10316;DHT22;5203;48.976;8.306;2024-02-26T09:27:45;9.40;99.90
10316;DHT22;5203;48.976;8.306;2024-02-26T09:30:11;9.30;99.90
10316;DHT22;5203;48.976;8.306;2024-02-26T09:32:37;9.40;99.90
10316;DHT22;5203;48.976;8.306;2024-02-26T09:35:04;9.50;99.90
10316;DHT22;5203;48.976;8.306;2024-02-26T09:37:30;9.60;99.90
10316;DHT22;5203;48.976;8.306;2024-02-26T09:39:55;9.70;99.90
10316;DHT22;5203;48.976;8.306;2024-02-26T09:42:25;9.80;99.90
10316;DHT22;5203;48.976;8.306;2024-02-26T09:44:54;9.90;99.90
10316;DHT22;5203;48.976;8.306;2024-02-26T09:47:23;10.10;99.90
10316;DHT22;5203;48.976;8.306;2024-02-26T09:49:50;10.20;99.90
10316;DHT22;5203;48.976;8.306;2024-02-26T09:52:19;10.30;99.90
10316;DHT22;5203;48.976;8.306;2024-02-26T09:54:49;10.30;99.90
10316;DHT22;5203;48.976;8.306;2024-02-26T09:57:15;10.30;99.90
10316;DHT22;5203;48.976;8.306;2024-02-26T09:59:43;10.30;99.90
10316;DHT22;5203;48.976;8.306;2024-02-26T10:02:13;10.30;99.70
10316;DHT22;5203;48.976;8.306;2024-02-26T10:04:40;10.40;99.90
10316;DHT22;5203;48.976;8.306;2024-02-26T10:07:11;10.40;99.90
10316;DHT22;5203;48.976;8.306;2024-02-26T10:09:37;10.50;99.90
10316;DHT22;5203;48.976;8.306;2024-02-26T10:12:03;10.50;98.80
10316;DHT22;5203;48.976;8.306;2024-02-26T10:14:30;10.60;99.90
10316;DHT22;5203;48.976;8.306;2024-02-26T10:16:56;10.70;99.30
10316;DHT22;5203;48.976;8.306;2024-02-26T10:19:29;10.80;98.40
10316;DHT22;5203;48.976;8.306;2024-02-26T10:22:01;10.80;99.10
10316;DHT22;5203;48.976;8.306;2024-02-26T10:24:29;10.90;96.70
10316;DHT22;5203;48.976;8.306;2024-02-26T10:26:55;11.00;96.70
10316;DHT22;5203;48.976;8.306;2024-02-26T10:29:23;10.90;97.90
10316;DHT22;5203;48.976;8.306;2024-02-26T10:31:50;11.00;97.10
10316;DHT22;5203;48.976;8.306;2024-02-26T10:34:15;10.90;96.40
10316;DHT22;5203;48.976;8.306;2024-02-26T10:36:42;11.00;97.60
10316;DHT22;5203;48.976;8.306;2024-02-26T10:39:08;11.00;96.90
10316;DHT22;5203;48.976;8.306;2024-02-26T10:41:33;11.10;96.90
10316;DHT22;5203;48.976;8.306;2024-02-26T10:44:00;11.20;96.40
10316;DHT22;5203;48.976;8.306;2024-02-26T10:46:26;11.30;97.00
10316;DHT22;5203;48.976;8.306;2024-02-26T10:48:52;11.40;96.60
10316;DHT22;5203;48.976;8.306;2024-02-26T10:51:26;11.50;94.10
10316;DHT22;5203;48.976;8.306;2024-02-26T10:53:55;11.60;93.20
10316;DHT22;5203;48.976;8.306;2024-02-26T10:56:25;11.70;91.30
10316;DHT22;5203;48.976;8.306;2024-02-26T10:58:53;12.00;92.00
10316;DHT22;5203;48.976;8.306;2024-02-26T11:01:19;12.30;90.80
10316;DHT22;5203;48.976;8.306;2024-02-26T11:03:47;12.40;86.50
10316;DHT22;5203;48.976;8.306;2024-02-26T11:06:14;12.50;86.40
10316;DHT22;5203;48.976;8.306;2024-02-26T11:08:41;12.50;87.10
10316;DHT22;5203;48.976;8.306;2024-02-26T11:11:07;12.60;87.50
10316;DHT22;5203;48.976;8.306;2024-02-26T11:13:33;12.70;84.80
10316;DHT22;5203;48.976;8.306;2024-02-26T11:16:03;12.90;82.10
10316;DHT22;5203;48.976;8.306;2024-02-26T11:18:30;13.20;81.30
10316;DHT22;5203;48.976;8.306;2024-02-26T11:20:56;13.50;75.90
10316;DHT22;5203;48.976;8.306;2024-02-26T11:23:23;13.80;78.60
10316;DHT22;5203;48.976;8.306;2024-02-26T11:25:50;13.60;75.90
10316;DHT22;5203;48.976;8.306;2024-02-26T11:28:19;13.70;73.00
10316;DHT22;5203;48.976;8.306;2024-02-26T11:30:48;13.80;76.20
10316;DHT22;5203;48.976;8.306;2024-02-26T11:33:14;13.80;74.20
10316;DHT22;5203;48.976;8.306;2024-02-26T11:35:40;14.00;72.80
10316;DHT22;5203;48.976;8.306;2024-02-26T11:38:07;13.70;70.30
10316;DHT22;5203;48.976;8.306;2024-02-26T11:40:33;13.40;74.70
10316;DHT22;5203;48.976;8.306;2024-02-26T11:43:04;13.20;74.90
10316;DHT22;5203;48.976;8.306;2024-02-26T11:48:15;13.30;73.60
10316;DHT22;5203;48.976;8.306;2024-02-26T11:50:46;13.50;74.20
10316;DHT22;5203;48.976;8.306;2024-02-26T11:53:31;13.70;69.30
10316;DHT22;5203;48.976;8.306;2024-02-26T11:59:00;13.90;70.10
10316;DHT22;5203;48.976;8.306;2024-02-26T12:01:38;14.40;68.70
10316;DHT22;5203;48.976;8.306;2024-02-26T12:04:11;14.60;66.10
10316;DHT22;5203;48.976;8.306;2024-02-26T12:06:46;14.30;66.90
10316;DHT22;5203;48.976;8.306;2024-02-26T12:09:12;14.20;69.30
10316;DHT22;5203;48.976;8.306;2024-02-26T12:11:39;14.20;69.40
10316;DHT22;5203;48.976;8.306;2024-02-26T12:14:07;14.20;66.90
10316;DHT22;5203;48.976;8.306;2024-02-26T12:16:40;14.20;68.20
10316;DHT22;5203;48.976;8.306;2024-02-26T12:19:09;14.10;66.30
10316;DHT22;5203;48.976;8.306;2024-02-26T12:21:35;14.00;67.90
10316;DHT22;5203;48.976;8.306;2024-02-26T12:24:14;14.00;66.80
10316;DHT22;5203;48.976;8.306;2024-02-26T12:26:43;14.20;66.30
10316;DHT22;5203;48.976;8.306;2024-02-26T12:29:09;14.50;65.90
10316;DHT22;5203;48.976;8.306;2024-02-26T12:31:37;14.50;62.20
10316;DHT22;5203;48.976;8.306;2024-02-26T12:34:04;14.70;62.80
10316;DHT22;5203;48.976;8.306;2024-02-26T12:36:30;15.10;61.90
10316;DHT22;5203;48.976;8.306;2024-02-26T12:38:56;15.30;60.70
10316;DHT22;5203;48.976;8.306;2024-02-26T12:41:22;15.10;61.80
10316;DHT22;5203;48.976;8.306;2024-02-26T12:43:48;15.20;63.10
10316;DHT22;5203;48.976;8.306;2024-02-26T12:46:14;15.30;61.70
10316;DHT22;5203;48.976;8.306;2024-02-26T12:48:43;15.40;60.50
10316;DHT22;5203;48.976;8.306;2024-02-26T12:51:11;15.30;59.30
10316;DHT22;5203;48.976;8.306;2024-02-26T12:53:38;15.30;59.50
10316;DHT22;5203;48.976;8.306;2024-02-26T12:56:05;15.00;60.90
10316;DHT22;5203;48.976;8.306;2024-02-26T12:58:31;14.90;62.30
10316;DHT22;5203;48.976;8.306;2024-02-26T13:00:57;14.70;63.90
10316;DHT22;5203;48.976;8.306;2024-02-26T13:03:24;14.60;64.30
10316;DHT22;5203;48.976;8.306;2024-02-26T13:05:50;14.50;65.30
10316;DHT22;5203;48.976;8.306;2024-02-26T13:08:20;14.60;64.40
10316;DHT22;5203;48.976;8.306;2024-02-26T13:10:46;14.90;63.70
10316;DHT22;5203;48.976;8.306;2024-02-26T13:13:15;15.00;61.70
10316;DHT22;5203;48.976;8.306;2024-02-26T13:15:44;15.20;60.90
10316;DHT22;5203;48.976;8.306;2024-02-26T13:18:10;15.30;60.10
10316;DHT22;5203;48.976;8.306;2024-02-26T13:20:36;15.40;59.30
10316;DHT22;5203;48.976;8.306;2024-02-26T13:23:06;15.90;56.50
10316;DHT22;5203;48.976;8.306;2024-02-26T13:25:33;16.80;53.80
10316;DHT22;5203;48.976;8.306;2024-02-26T13:28:09;17.10;52.40
10316;DHT22;5203;48.976;8.306;2024-02-26T13:30:35;17.60;51.40
10316;DHT22;5203;48.976;8.306;2024-02-26T13:33:11;17.90;50.20
10316;DHT22;5203;48.976;8.306;2024-02-26T13:35:38;18.00;49.00
10316;DHT22;5203;48.976;8.306;2024-02-26T13:38:05;17.10;50.30
10316;DHT22;5203;48.976;8.306;2024-02-26T13:40:32;16.60;53.20
10316;DHT22;5203;48.976;8.306;2024-02-26T13:42:58;17.20;51.90
10316;DHT22;5203;48.976;8.306;2024-02-26T13:45:23;17.60;49.50
10316;DHT22;5203;48.976;8.306;2024-02-26T13:47:49;17.20;50.40
10316;DHT22;5203;48.976;8.306;2024-02-26T13:50:15;16.70;52.30
10316;DHT22;5203;48.976;8.306;2024-02-26T13:52:42;16.60;52.60
10316;DHT22;5203;48.976;8.306;2024-02-26T13:55:08;16.60;52.20
10316;DHT22;5203;48.976;8.306;2024-02-26T13:57:33;17.20;50.60
10316;DHT22;5203;48.976;8.306;2024-02-26T13:59:59;17.80;49.60
10316;DHT22;5203;48.976;8.306;2024-02-26T14:02:25;18.10;48.30
10316;DHT22;5203;48.976;8.306;2024-02-26T14:04:51;17.70;48.30
10316;DHT22;5203;48.976;8.306;2024-02-26T14:07:16;17.10;50.10
10316;DHT22;5203;48.976;8.306;2024-02-26T14:09:43;16.50;51.80
10316;DHT22;5203;48.976;8.306;2024-02-26T14:12:09;16.20;52.60
10316;DHT22;5203;48.976;8.306;2024-02-26T14:14:35;15.90;53.80
10316;DHT22;5203;48.976;8.306;2024-02-26T14:17:04;16.00;52.90
10316;DHT22;5203;48.976;8.306;2024-02-26T14:19:30;16.90;51.20
10316;DHT22;5203;48.976;8.306;2024-02-26T14:21:55;18.10;46.30
10316;DHT22;5203;48.976;8.306;2024-02-26T14:24:21;19.00;44.80
10316;DHT22;5203;48.976;8.306;2024-02-26T14:26:46;19.20;43.30
10316;DHT22;5203;48.976;8.306;2024-02-26T14:29:12;19.30;42.40
10316;DHT22;5203;48.976;8.306;2024-02-26T14:31:38;19.20;42.60
10316;DHT22;5203;48.976;8.306;2024-02-26T14:34:03;18.90;42.20
10316;DHT22;5203;48.976;8.306;2024-02-26T14:36:29;19.00;43.10
10316;DHT22;5203;48.976;8.306;2024-02-26T14:38:54;19.30;42.30
10316;DHT22;5203;48.976;8.306;2024-02-26T14:41:20;19.70;41.90
10316;DHT22;5203;48.976;8.306;2024-02-26T14:43:46;20.10;41.00
10316;DHT22;5203;48.976;8.306;2024-02-26T14:46:11;20.20;40.10
10316;DHT22;5203;48.976;8.306;2024-02-26T14:48:37;20.60;39.80
10316;DHT22;5203;48.976;8.306;2024-02-26T14:51:03;20.70;39.50
10316;DHT22;5203;48.976;8.306;2024-02-26T14:53:31;20.90;39.10
10316;DHT22;5203;48.976;8.306;2024-02-26T14:55:57;20.50;39.30
10316;DHT22;5203;48.976;8.306;2024-02-26T14:58:23;20.70;38.90
10316;DHT22;5203;48.976;8.306;2024-02-26T15:00:49;20.90;39.60
10316;DHT22;5203;48.976;8.306;2024-02-26T15:03:15;21.20;37.90
10316;DHT22;5203;48.976;8.306;2024-02-26T15:05:42;20.90;38.60
10316;DHT22;5203;48.976;8.306;2024-02-26T15:08:07;19.60;40.70
10316;DHT22;5203;48.976;8.306;2024-02-26T15:10:40;18.60;43.00
10316;DHT22;5203;48.976;8.306;2024-02-26T15:13:13;17.70;45.30
10316;DHT22;5203;48.976;8.306;2024-02-26T15:15:38;17.30;46.10
10316;DHT22;5203;48.976;8.306;2024-02-26T15:18:07;17.70;47.10
10316;DHT22;5203;48.976;8.306;2024-02-26T15:20:33;18.40;44.20
10316;DHT22;5203;48.976;8.306;2024-02-26T15:22:59;18.70;43.10
10316;DHT22;5203;48.976;8.306;2024-02-26T15:25:25;19.40;42.20
10316;DHT22;5203;48.976;8.306;2024-02-26T15:27:51;19.40;41.20
10316;DHT22;5203;48.976;8.306;2024-02-26T15:30:17;19.00;42.20
10316;DHT22;5203;48.976;8.306;2024-02-26T15:32:43;18.70;43.00
10316;DHT22;5203;48.976;8.306;2024-02-26T15:35:10;18.60;43.90
10316;DHT22;5203;48.976;8.306;2024-02-26T15:37:36;18.30;44.20
10316;DHT22;5203;48.976;8.306;2024-02-26T15:40:08;17.80;45.40
10316;DHT22;5203;48.976;8.306;2024-02-26T15:42:34;17.20;46.90
10316;DHT22;5203;48.976;8.306;2024-02-26T15:45:12;16.90;48.50
10316;DHT22;5203;48.976;8.306;2024-02-26T15:47:41;16.80;49.00
10316;DHT22;5203;48.976;8.306;2024-02-26T15:50:07;16.40;50.50
10316;DHT22;5203;48.976;8.306;2024-02-26T15:52:33;16.40;51.30
10316;DHT22;5203;48.976;8.306;2024-02-26T15:54:59;16.30;51.30
10316;DHT22;5203;48.976;8.306;2024-02-26T15:57:25;16.10;52.00